sensor_id;sensor_type;location;lat;lon;timestamp;P1;durP1;ratioP1;P2;durP2;ratioP2
11996;SDS011;6058;48.704;9.474;2023-05-02T00:02:12;4.07;;;3.77;;
11996;SDS011;6058;48.704;9.474;2023-05-02T00:04:40;3.37;;;3.17;;
11996;SDS011;6058;48.704;9.474;2023-05-02T00:07:07;3.37;;;3.07;;
11996;SDS011;6058;48.704;9.474;2023-05-02T00:09:34;3.47;;;3.17;;
11996;SDS011;6058;48.704;9.474;2023-05-02T00:12:03;3.57;;;3.23;;
11996;SDS011;6058;48.704;9.474;2023-05-02T00:14:30;4.37;;;3.00;;
11996;SDS011;6058;48.704;9.474;2023-05-02T00:16:57;2.97;;;2.77;;
11996;SDS011;6058;48.704;9.474;2023-05-02T00:19:25;3.33;;;3.03;;
11996;SDS011;6058;48.704;9.474;2023-05-02T00:21:52;3.77;;;2.67;;
11996;SDS011;6058;48.704;9.474;2023-05-02T00:24:19;3.70;;;3.40;;
11996;SDS011;6058;48.704;9.474;2023-05-02T00:26:46;3.67;;;3.33;;
11996;SDS011;6058;48.704;9.474;2023-05-02T00:29:15;3.60;;;3.30;;
11996;SDS011;6058;48.704;9.474;2023-05-02T00:31:42;3.77;;;3.47;;
11996;SDS011;6058;48.704;9.474;2023-05-02T00:34:09;2.83;;;2.63;;
11996;SDS011;6058;48.704;9.474;2023-05-02T00:36:36;5.57;;;3.17;;
11996;SDS011;6058;48.704;9.474;2023-05-02T00:39:03;4.83;;;3.00;;
11996;SDS011;6058;48.704;9.474;2023-05-02T00:41:30;3.57;;;3.27;;
11996;SDS011;6058;48.704;9.474;2023-05-02T00:43:57;3.07;;;2.80;;
11996;SDS011;6058;48.704;9.474;2023-05-02T00:46:26;3.00;;;2.80;;
11996;SDS011;6058;48.704;9.474;2023-05-02T00:48:53;4.33;;;3.53;;
11996;SDS011;6058;48.704;9.474;2023-05-02T00:51:20;3.17;;;2.83;;
11996;SDS011;6058;48.704;9.474;2023-05-02T00:53:48;3.57;;;3.27;;
11996;SDS011;6058;48.704;9.474;2023-05-02T00:56:15;4.33;;;3.00;;
11996;SDS011;6058;48.704;9.474;2023-05-02T00:58:42;3.30;;;3.00;;
11996;SDS011;6058;48.704;9.474;2023-05-02T01:01:22;2.97;;;2.63;;
11996;SDS011;6058;48.704;9.474;2023-05-02T01:03:57;3.40;;;2.90;;
11996;SDS011;6058;48.704;9.474;2023-05-02T01:06:30;3.70;;;3.40;;
11996;SDS011;6058;48.704;9.474;2023-05-02T01:09:02;3.37;;;3.00;;
11996;SDS011;6058;48.704;9.474;2023-05-02T01:11:43;2.80;;;2.60;;
11996;SDS011;6058;48.704;9.474;2023-05-02T01:14:14;2.77;;;2.57;;
11996;SDS011;6058;48.704;9.474;2023-05-02T01:16:42;2.83;;;2.63;;
11996;SDS011;6058;48.704;9.474;2023-05-02T01:19:21;2.80;;;2.60;;
11996;SDS011;6058;48.704;9.474;2023-05-02T01:21:51;4.17;;;2.77;;
11996;SDS011;6058;48.704;9.474;2023-05-02T01:24:24;2.60;;;2.40;;
11996;SDS011;6058;48.704;9.474;2023-05-02T01:26:53;3.40;;;3.10;;
11996;SDS011;6058;48.704;9.474;2023-05-02T01:29:28;3.00;;;2.80;;
11996;SDS011;6058;48.704;9.474;2023-05-02T01:31:55;3.67;;;3.00;;
11996;SDS011;6058;48.704;9.474;2023-05-02T01:34:22;2.93;;;2.73;;
11996;SDS011;6058;48.704;9.474;2023-05-02T01:36:51;3.53;;;2.67;;
11996;SDS011;6058;48.704;9.474;2023-05-02T01:39:20;2.93;;;2.73;;
11996;SDS011;6058;48.704;9.474;2023-05-02T01:41:48;3.73;;;3.30;;
11996;SDS011;6058;48.704;9.474;2023-05-02T01:44:17;2.83;;;2.57;;
11996;SDS011;6058;48.704;9.474;2023-05-02T01:46:47;2.53;;;2.33;;
11996;SDS011;6058;48.704;9.474;2023-05-02T01:49:14;5.37;;;2.90;;
11996;SDS011;6058;48.704;9.474;2023-05-02T01:51:42;2.87;;;2.57;;
11996;SDS011;6058;48.704;9.474;2023-05-02T01:54:10;2.50;;;2.30;;
11996;SDS011;6058;48.704;9.474;2023-05-02T01:56:38;2.57;;;2.37;;
11996;SDS011;6058;48.704;9.474;2023-05-02T01:59:07;2.60;;;2.40;;
11996;SDS011;6058;48.704;9.474;2023-05-02T02:01:35;2.63;;;2.43;;
11996;SDS011;6058;48.704;9.474;2023-05-02T02:04:05;2.90;;;2.70;;
11996;SDS011;6058;48.704;9.474;2023-05-02T02:06:32;2.70;;;2.50;;
11996;SDS011;6058;48.704;9.474;2023-05-02T02:09:00;2.93;;;2.60;;
11996;SDS011;6058;48.704;9.474;2023-05-02T02:11:28;2.97;;;2.77;;
11996;SDS011;6058;48.704;9.474;2023-05-02T02:13:59;4.47;;;2.67;;
11996;SDS011;6058;48.704;9.474;2023-05-02T02:16:29;2.00;;;1.90;;
11996;SDS011;6058;48.704;9.474;2023-05-02T02:18:56;2.67;;;2.47;;
11996;SDS011;6058;48.704;9.474;2023-05-02T02:21:26;3.83;;;3.00;;
11996;SDS011;6058;48.704;9.474;2023-05-02T02:23:55;3.70;;;2.90;;
11996;SDS011;6058;48.704;9.474;2023-05-02T02:26:23;2.50;;;2.30;;
11996;SDS011;6058;48.704;9.474;2023-05-02T02:28:50;2.50;;;2.30;;
11996;SDS011;6058;48.704;9.474;2023-05-02T02:31:17;2.30;;;2.10;;
11996;SDS011;6058;48.704;9.474;2023-05-02T02:33:44;2.50;;;2.30;;
11996;SDS011;6058;48.704;9.474;2023-05-02T02:36:13;2.70;;;2.27;;
11996;SDS011;6058;48.704;9.474;2023-05-02T02:38:44;5.47;;;2.60;;
11996;SDS011;6058;48.704;9.474;2023-05-02T02:41:15;4.07;;;2.40;;
11996;SDS011;6058;48.704;9.474;2023-05-02T02:43:47;2.37;;;2.27;;
11996;SDS011;6058;48.704;9.474;2023-05-02T02:46:21;2.60;;;2.40;;
11996;SDS011;6058;48.704;9.474;2023-05-02T02:48:54;3.30;;;2.53;;
11996;SDS011;6058;48.704;9.474;2023-05-02T02:51:24;2.80;;;2.43;;
11996;SDS011;6058;48.704;9.474;2023-05-02T02:53:57;3.80;;;2.57;;
11996;SDS011;6058;48.704;9.474;2023-05-02T02:56:27;4.97;;;2.80;;
11996;SDS011;6058;48.704;9.474;2023-05-02T02:58:56;2.60;;;2.40;;
11996;SDS011;6058;48.704;9.474;2023-05-02T03:01:26;5.07;;;2.90;;
11996;SDS011;6058;48.704;9.474;2023-05-02T03:03:53;7.93;;;3.17;;
11996;SDS011;6058;48.704;9.474;2023-05-02T03:06:20;8.57;;;2.63;;
11996;SDS011;6058;48.704;9.474;2023-05-02T03:08:48;2.83;;;2.63;;
11996;SDS011;6058;48.704;9.474;2023-05-02T03:11:16;3.90;;;3.00;;
11996;SDS011;6058;48.704;9.474;2023-05-02T03:13:43;3.73;;;3.07;;
11996;SDS011;6058;48.704;9.474;2023-05-02T03:16:17;3.70;;;3.20;;
11996;SDS011;6058;48.704;9.474;2023-05-02T03:18:47;3.00;;;2.80;;
11996;SDS011;6058;48.704;9.474;2023-05-02T03:21:14;5.17;;;2.90;;
11996;SDS011;6058;48.704;9.474;2023-05-02T03:23:41;3.57;;;2.70;;
11996;SDS011;6058;48.704;9.474;2023-05-02T03:26:08;3.00;;;2.80;;
11996;SDS011;6058;48.704;9.474;2023-05-02T03:28:37;2.80;;;2.60;;
11996;SDS011;6058;48.704;9.474;2023-05-02T03:31:04;5.53;;;3.00;;
11996;SDS011;6058;48.704;9.474;2023-05-02T03:33:31;3.57;;;3.00;;
11996;SDS011;6058;48.704;9.474;2023-05-02T03:35:58;2.80;;;2.60;;
11996;SDS011;6058;48.704;9.474;2023-05-02T03:38:25;4.23;;;2.77;;
11996;SDS011;6058;48.704;9.474;2023-05-02T03:40:55;3.23;;;2.83;;
11996;SDS011;6058;48.704;9.474;2023-05-02T03:43:23;3.37;;;2.77;;
11996;SDS011;6058;48.704;9.474;2023-05-02T03:45:51;4.10;;;3.57;;
11996;SDS011;6058;48.704;9.474;2023-05-02T03:48:18;4.20;;;2.93;;
11996;SDS011;6058;48.704;9.474;2023-05-02T03:50:45;4.07;;;3.67;;
11996;SDS011;6058;48.704;9.474;2023-05-02T03:53:13;4.17;;;3.67;;
11996;SDS011;6058;48.704;9.474;2023-05-02T03:55:40;4.10;;;3.70;;
11996;SDS011;6058;48.704;9.474;2023-05-02T03:58:09;4.23;;;3.83;;
11996;SDS011;6058;48.704;9.474;2023-05-02T04:00:36;4.30;;;3.43;;
11996;SDS011;6058;48.704;9.474;2023-05-02T04:03:05;4.00;;;3.60;;
11996;SDS011;6058;48.704;9.474;2023-05-02T04:05:32;5.60;;;4.63;;
11996;SDS011;6058;48.704;9.474;2023-05-02T04:08:00;6.20;;;4.00;;
11996;SDS011;6058;48.704;9.474;2023-05-02T04:10:27;6.77;;;4.83;;
11996;SDS011;6058;48.704;9.474;2023-05-02T04:12:54;4.73;;;4.23;;
11996;SDS011;6058;48.704;9.474;2023-05-02T04:15:21;4.50;;;4.00;;
11996;SDS011;6058;48.704;9.474;2023-05-02T04:17:50;4.97;;;4.47;;
11996;SDS011;6058;48.704;9.474;2023-05-02T04:20:18;4.20;;;3.70;;
11996;SDS011;6058;48.704;9.474;2023-05-02T04:22:45;4.33;;;3.93;;
11996;SDS011;6058;48.704;9.474;2023-05-02T04:25:14;5.87;;;4.17;;
11996;SDS011;6058;48.704;9.474;2023-05-02T04:27:41;4.30;;;3.90;;
11996;SDS011;6058;48.704;9.474;2023-05-02T04:30:09;4.73;;;4.00;;
11996;SDS011;6058;48.704;9.474;2023-05-02T04:32:36;3.83;;;3.23;;
11996;SDS011;6058;48.704;9.474;2023-05-02T04:35:03;4.67;;;3.17;;
11996;SDS011;6058;48.704;9.474;2023-05-02T04:37:32;3.73;;;3.33;;
11996;SDS011;6058;48.704;9.474;2023-05-02T04:39:59;3.70;;;3.10;;
11996;SDS011;6058;48.704;9.474;2023-05-02T04:42:27;4.87;;;3.57;;
11996;SDS011;6058;48.704;9.474;2023-05-02T04:44:54;4.03;;;3.63;;
11996;SDS011;6058;48.704;9.474;2023-05-02T04:47:21;3.67;;;3.37;;
11996;SDS011;6058;48.704;9.474;2023-05-02T04:49:48;4.33;;;3.80;;
11996;SDS011;6058;48.704;9.474;2023-05-02T04:52:16;4.67;;;3.30;;
11996;SDS011;6058;48.704;9.474;2023-05-02T04:54:45;4.00;;;3.60;;
11996;SDS011;6058;48.704;9.474;2023-05-02T04:57:13;5.03;;;4.27;;
11996;SDS011;6058;48.704;9.474;2023-05-02T04:59:40;3.53;;;3.07;;
11996;SDS011;6058;48.704;9.474;2023-05-02T05:02:07;4.43;;;3.50;;
11996;SDS011;6058;48.704;9.474;2023-05-02T05:04:36;3.83;;;3.53;;
11996;SDS011;6058;48.704;9.474;2023-05-02T05:07:03;4.47;;;3.57;;
11996;SDS011;6058;48.704;9.474;2023-05-02T05:09:30;5.80;;;3.67;;
11996;SDS011;6058;48.704;9.474;2023-05-02T05:11:59;3.90;;;3.60;;
11996;SDS011;6058;48.704;9.474;2023-05-02T05:14:27;4.20;;;3.03;;
11996;SDS011;6058;48.704;9.474;2023-05-02T05:16:55;3.83;;;3.47;;
11996;SDS011;6058;48.704;9.474;2023-05-02T05:19:23;4.13;;;3.73;;
11996;SDS011;6058;48.704;9.474;2023-05-02T05:21:51;3.43;;;3.13;;
11996;SDS011;6058;48.704;9.474;2023-05-02T05:24:18;3.57;;;3.23;;
11996;SDS011;6058;48.704;9.474;2023-05-02T05:26:45;4.00;;;3.60;;
11996;SDS011;6058;48.704;9.474;2023-05-02T05:29:13;3.93;;;3.53;;
11996;SDS011;6058;48.704;9.474;2023-05-02T05:31:42;4.23;;;3.57;;
11996;SDS011;6058;48.704;9.474;2023-05-02T05:34:09;3.70;;;3.40;;
11996;SDS011;6058;48.704;9.474;2023-05-02T05:36:38;4.77;;;4.23;;
11996;SDS011;6058;48.704;9.474;2023-05-02T05:39:05;3.80;;;3.40;;
11996;SDS011;6058;48.704;9.474;2023-05-02T05:41:32;4.40;;;4.00;;
11996;SDS011;6058;48.704;9.474;2023-05-02T05:44:00;4.00;;;3.63;;
11996;SDS011;6058;48.704;9.474;2023-05-02T05:46:28;4.17;;;3.57;;
11996;SDS011;6058;48.704;9.474;2023-05-02T05:48:55;4.00;;;3.50;;
11996;SDS011;6058;48.704;9.474;2023-05-02T05:51:22;6.17;;;3.80;;
11996;SDS011;6058;48.704;9.474;2023-05-02T05:56:20;4.10;;;3.70;;
11996;SDS011;6058;48.704;9.474;2023-05-02T05:58:48;5.97;;;3.83;;
11996;SDS011;6058;48.704;9.474;2023-05-02T06:01:15;10.63;;;9.83;;
11996;SDS011;6058;48.704;9.474;2023-05-02T06:03:44;8.13;;;7.33;;
11996;SDS011;6058;48.704;9.474;2023-05-02T06:06:11;7.17;;;6.47;;
11996;SDS011;6058;48.704;9.474;2023-05-02T06:08:40;8.07;;;7.27;;
11996;SDS011;6058;48.704;9.474;2023-05-02T06:11:11;8.67;;;7.90;;
11996;SDS011;6058;48.704;9.474;2023-05-02T06:13:39;7.63;;;6.87;;
11996;SDS011;6058;48.704;9.474;2023-05-02T06:16:07;7.60;;;6.90;;
11996;SDS011;6058;48.704;9.474;2023-05-02T06:18:35;6.13;;;5.53;;
11996;SDS011;6058;48.704;9.474;2023-05-02T06:21:04;7.03;;;6.33;;
11996;SDS011;6058;48.704;9.474;2023-05-02T06:23:35;7.40;;;5.73;;
11996;SDS011;6058;48.704;9.474;2023-05-02T06:26:04;9.73;;;7.97;;
11996;SDS011;6058;48.704;9.474;2023-05-02T06:28:37;6.80;;;6.10;;
11996;SDS011;6058;48.704;9.474;2023-05-02T06:31:08;5.60;;;5.10;;
11996;SDS011;6058;48.704;9.474;2023-05-02T06:38:47;5.40;;;4.90;;
11996;SDS011;6058;48.704;9.474;2023-05-02T06:41:15;7.20;;;4.70;;
11996;SDS011;6058;48.704;9.474;2023-05-02T06:43:46;5.43;;;4.93;;
11996;SDS011;6058;48.704;9.474;2023-05-02T06:46:15;6.87;;;5.03;;
11996;SDS011;6058;48.704;9.474;2023-05-02T06:48:42;5.10;;;4.53;;
11996;SDS011;6058;48.704;9.474;2023-05-02T06:51:10;6.60;;;4.80;;
11996;SDS011;6058;48.704;9.474;2023-05-02T06:53:37;9.07;;;5.47;;
11996;SDS011;6058;48.704;9.474;2023-05-02T06:56:06;6.43;;;5.40;;
11996;SDS011;6058;48.704;9.474;2023-05-02T06:58:33;5.57;;;4.97;;
11996;SDS011;6058;48.704;9.474;2023-05-02T07:01:00;5.60;;;5.10;;
11996;SDS011;6058;48.704;9.474;2023-05-02T07:03:28;5.53;;;5.03;;
11996;SDS011;6058;48.704;9.474;2023-05-02T07:05:58;5.53;;;5.03;;
11996;SDS011;6058;48.704;9.474;2023-05-02T07:08:26;6.50;;;5.07;;
11996;SDS011;6058;48.704;9.474;2023-05-02T07:10:54;8.37;;;5.63;;
11996;SDS011;6058;48.704;9.474;2023-05-02T07:13:27;5.53;;;4.97;;
11996;SDS011;6058;48.704;9.474;2023-05-02T07:15:55;5.43;;;4.90;;
11996;SDS011;6058;48.704;9.474;2023-05-02T07:18:23;5.37;;;4.87;;
11996;SDS011;6058;48.704;9.474;2023-05-02T07:20:50;6.83;;;5.10;;
11996;SDS011;6058;48.704;9.474;2023-05-02T07:23:17;5.50;;;4.97;;
11996;SDS011;6058;48.704;9.474;2023-05-02T07:25:48;6.67;;;5.40;;
11996;SDS011;6058;48.704;9.474;2023-05-02T07:28:17;6.17;;;5.57;;
11996;SDS011;6058;48.704;9.474;2023-05-02T07:30:46;6.07;;;5.43;;
11996;SDS011;6058;48.704;9.474;2023-05-02T07:33:17;6.20;;;5.60;;
11996;SDS011;6058;48.704;9.474;2023-05-02T07:35:56;6.10;;;5.27;;
11996;SDS011;6058;48.704;9.474;2023-05-02T07:38:30;10.40;;;5.67;;
11996;SDS011;6058;48.704;9.474;2023-05-02T07:41:06;6.43;;;5.50;;
11996;SDS011;6058;48.704;9.474;2023-05-02T07:43:43;6.50;;;5.77;;
11996;SDS011;6058;48.704;9.474;2023-05-02T08:19:00;10.07;;;7.73;;
11996;SDS011;6058;48.704;9.474;2023-05-02T08:21:30;12.47;;;7.83;;
11996;SDS011;6058;48.704;9.474;2023-05-02T08:24:10;8.93;;;8.00;;
11996;SDS011;6058;48.704;9.474;2023-05-02T08:26:43;9.17;;;8.07;;
11996;SDS011;6058;48.704;9.474;2023-05-02T08:29:18;8.70;;;7.80;;
11996;SDS011;6058;48.704;9.474;2023-05-02T08:31:48;9.80;;;8.67;;
11996;SDS011;6058;48.704;9.474;2023-05-02T08:34:21;9.77;;;7.60;;
11996;SDS011;6058;48.704;9.474;2023-05-02T08:37:06;10.30;;;8.03;;
11996;SDS011;6058;48.704;9.474;2023-05-02T08:39:45;10.97;;;7.63;;
11996;SDS011;6058;48.704;9.474;2023-05-02T08:42:20;8.80;;;7.73;;
11996;SDS011;6058;48.704;9.474;2023-05-02T08:44:52;9.43;;;8.07;;
11996;SDS011;6058;48.704;9.474;2023-05-02T08:52:45;10.73;;;8.93;;
11996;SDS011;6058;48.704;9.474;2023-05-02T08:55:13;10.87;;;9.37;;
11996;SDS011;6058;48.704;9.474;2023-05-02T08:57:46;10.00;;;8.57;;
11996;SDS011;6058;48.704;9.474;2023-05-02T09:00:18;12.97;;;10.10;;
11996;SDS011;6058;48.704;9.474;2023-05-02T09:03:19;14.17;;;9.80;;
11996;SDS011;6058;48.704;9.474;2023-05-02T09:05:53;14.90;;;9.37;;
11996;SDS011;6058;48.704;9.474;2023-05-02T09:11:07;14.40;;;9.27;;
11996;SDS011;6058;48.704;9.474;2023-05-02T09:18:57;12.93;;;10.90;;
11996;SDS011;6058;48.704;9.474;2023-05-02T09:24:01;13.50;;;10.83;;
11996;SDS011;6058;48.704;9.474;2023-05-02T09:26:41;14.27;;;11.87;;
11996;SDS011;6058;48.704;9.474;2023-05-02T09:29:15;17.20;;;11.47;;
11996;SDS011;6058;48.704;9.474;2023-05-02T09:31:46;15.63;;;11.37;;
11996;SDS011;6058;48.704;9.474;2023-05-02T09:34:16;11.50;;;10.30;;
11996;SDS011;6058;48.704;9.474;2023-05-02T09:36:48;14.57;;;11.87;;
11996;SDS011;6058;48.704;9.474;2023-05-02T09:39:19;14.70;;;9.87;;
11996;SDS011;6058;48.704;9.474;2023-05-02T09:44:35;14.10;;;10.13;;
11996;SDS011;6058;48.704;9.474;2023-05-02T09:47:23;14.10;;;10.93;;
11996;SDS011;6058;48.704;9.474;2023-05-02T09:49:57;12.30;;;10.73;;
11996;SDS011;6058;48.704;9.474;2023-05-02T09:52:31;12.67;;;11.27;;
11996;SDS011;6058;48.704;9.474;2023-05-02T09:54:59;16.93;;;12.27;;
11996;SDS011;6058;48.704;9.474;2023-05-02T09:57:40;20.70;;;11.30;;
11996;SDS011;6058;48.704;9.474;2023-05-02T10:00:10;14.27;;;11.47;;
11996;SDS011;6058;48.704;9.474;2023-05-02T10:02:43;17.30;;;10.43;;
11996;SDS011;6058;48.704;9.474;2023-05-02T10:05:14;13.57;;;11.53;;
11996;SDS011;6058;48.704;9.474;2023-05-02T10:07:44;13.20;;;10.70;;
11996;SDS011;6058;48.704;9.474;2023-05-02T10:10:12;12.80;;;11.00;;
11996;SDS011;6058;48.704;9.474;2023-05-02T10:12:40;15.43;;;10.90;;
11996;SDS011;6058;48.704;9.474;2023-05-02T10:15:10;12.50;;;11.20;;
11996;SDS011;6058;48.704;9.474;2023-05-02T10:17:40;12.50;;;11.20;;
11996;SDS011;6058;48.704;9.474;2023-05-02T10:20:09;11.97;;;10.63;;
11996;SDS011;6058;48.704;9.474;2023-05-02T10:22:40;12.97;;;10.43;;
11996;SDS011;6058;48.704;9.474;2023-05-02T10:25:12;13.30;;;10.87;;
11996;SDS011;6058;48.704;9.474;2023-05-02T10:27:44;10.93;;;9.70;;
11996;SDS011;6058;48.704;9.474;2023-05-02T10:30:13;11.50;;;10.00;;
11996;SDS011;6058;48.704;9.474;2023-05-02T10:32:43;10.13;;;9.13;;
11996;SDS011;6058;48.704;9.474;2023-05-02T10:35:12;11.50;;;9.13;;
11996;SDS011;6058;48.704;9.474;2023-05-02T10:37:45;9.83;;;8.73;;
11996;SDS011;6058;48.704;9.474;2023-05-02T10:40:21;11.37;;;9.20;;
11996;SDS011;6058;48.704;9.474;2023-05-02T10:42:53;11.63;;;9.53;;
11996;SDS011;6058;48.704;9.474;2023-05-02T10:45:39;11.87;;;10.13;;
11996;SDS011;6058;48.704;9.474;2023-05-02T10:48:16;9.10;;;7.10;;
11996;SDS011;6058;48.704;9.474;2023-05-02T10:50:46;9.67;;;8.63;;
11996;SDS011;6058;48.704;9.474;2023-05-02T10:53:21;10.60;;;9.03;;
11996;SDS011;6058;48.704;9.474;2023-05-02T10:58:31;14.40;;;10.20;;
11996;SDS011;6058;48.704;9.474;2023-05-02T11:03:54;10.13;;;9.07;;
11996;SDS011;6058;48.704;9.474;2023-05-02T11:06:21;11.37;;;9.53;;
11996;SDS011;6058;48.704;9.474;2023-05-02T11:08:49;10.17;;;9.17;;
11996;SDS011;6058;48.704;9.474;2023-05-02T11:11:37;10.87;;;8.73;;
11996;SDS011;6058;48.704;9.474;2023-05-02T11:14:04;10.37;;;9.27;;
11996;SDS011;6058;48.704;9.474;2023-05-02T11:19:21;11.00;;;9.83;;
11996;SDS011;6058;48.704;9.474;2023-05-02T11:21:48;11.17;;;9.70;;
11996;SDS011;6058;48.704;9.474;2023-05-02T11:24:36;10.77;;;9.57;;
11996;SDS011;6058;48.704;9.474;2023-05-02T11:29:52;14.57;;;9.10;;
11996;SDS011;6058;48.704;9.474;2023-05-02T11:32:19;13.07;;;9.73;;
11996;SDS011;6058;48.704;9.474;2023-05-02T11:34:48;14.40;;;10.33;;
11996;SDS011;6058;48.704;9.474;2023-05-02T11:37:17;12.50;;;9.20;;
11996;SDS011;6058;48.704;9.474;2023-05-02T11:39:44;12.30;;;9.93;;
11996;SDS011;6058;48.704;9.474;2023-05-02T11:42:26;13.97;;;9.70;;
11996;SDS011;6058;48.704;9.474;2023-05-02T11:44:54;9.87;;;8.87;;
11996;SDS011;6058;48.704;9.474;2023-05-02T11:47:21;11.73;;;9.00;;
11996;SDS011;6058;48.704;9.474;2023-05-02T11:49:50;11.00;;;8.67;;
11996;SDS011;6058;48.704;9.474;2023-05-02T11:52:17;11.83;;;9.60;;
11996;SDS011;6058;48.704;9.474;2023-05-02T11:54:44;10.70;;;9.17;;
11996;SDS011;6058;48.704;9.474;2023-05-02T11:57:11;9.77;;;8.77;;
11996;SDS011;6058;48.704;9.474;2023-05-02T11:59:49;11.43;;;9.70;;
11996;SDS011;6058;48.704;9.474;2023-05-02T12:02:16;12.50;;;9.70;;
11996;SDS011;6058;48.704;9.474;2023-05-02T12:04:43;11.67;;;8.83;;
11996;SDS011;6058;48.704;9.474;2023-05-02T12:07:12;11.80;;;9.33;;
11996;SDS011;6058;48.704;9.474;2023-05-02T12:09:52;11.87;;;9.17;;
11996;SDS011;6058;48.704;9.474;2023-05-02T12:12:19;10.37;;;8.00;;
11996;SDS011;6058;48.704;9.474;2023-05-02T12:17:50;9.83;;;8.37;;
11996;SDS011;6058;48.704;9.474;2023-05-02T12:20:17;8.63;;;7.73;;
11996;SDS011;6058;48.704;9.474;2023-05-02T12:22:46;8.90;;;7.13;;
11996;SDS011;6058;48.704;9.474;2023-05-02T12:25:13;8.30;;;7.40;;
11996;SDS011;6058;48.704;9.474;2023-05-02T12:27:40;9.07;;;7.47;;
11996;SDS011;6058;48.704;9.474;2023-05-02T12:30:07;10.53;;;7.93;;
11996;SDS011;6058;48.704;9.474;2023-05-02T12:32:35;10.77;;;8.17;;
11996;SDS011;6058;48.704;9.474;2023-05-02T12:35:19;11.07;;;8.67;;
11996;SDS011;6058;48.704;9.474;2023-05-02T12:37:48;8.67;;;7.53;;
11996;SDS011;6058;48.704;9.474;2023-05-02T12:40:20;9.70;;;8.57;;
11996;SDS011;6058;48.704;9.474;2023-05-02T12:42:57;12.00;;;9.07;;
11996;SDS011;6058;48.704;9.474;2023-05-02T12:45:25;12.40;;;9.83;;
11996;SDS011;6058;48.704;9.474;2023-05-02T12:47:57;11.53;;;9.10;;
11996;SDS011;6058;48.704;9.474;2023-05-02T12:50:34;11.60;;;9.20;;
11996;SDS011;6058;48.704;9.474;2023-05-02T12:53:03;9.13;;;7.00;;
11996;SDS011;6058;48.704;9.474;2023-05-02T12:55:31;10.27;;;8.10;;
11996;SDS011;6058;48.704;9.474;2023-05-02T12:57:59;8.30;;;7.50;;
11996;SDS011;6058;48.704;9.474;2023-05-02T13:00:26;8.83;;;7.17;;
11996;SDS011;6058;48.704;9.474;2023-05-02T13:02:53;10.07;;;7.93;;
11996;SDS011;6058;48.704;9.474;2023-05-02T13:05:21;10.17;;;7.60;;
11996;SDS011;6058;48.704;9.474;2023-05-02T13:07:48;7.47;;;6.67;;
11996;SDS011;6058;48.704;9.474;2023-05-02T13:10:17;11.67;;;8.77;;
11996;SDS011;6058;48.704;9.474;2023-05-02T13:12:44;10.73;;;8.10;;
11996;SDS011;6058;48.704;9.474;2023-05-02T13:15:12;12.67;;;10.30;;
11996;SDS011;6058;48.704;9.474;2023-05-02T13:17:39;11.30;;;9.83;;
11996;SDS011;6058;48.704;9.474;2023-05-02T13:20:07;12.10;;;9.50;;
11996;SDS011;6058;48.704;9.474;2023-05-02T13:22:34;12.33;;;9.50;;
11996;SDS011;6058;48.704;9.474;2023-05-02T13:25:02;12.50;;;9.27;;
11996;SDS011;6058;48.704;9.474;2023-05-02T13:27:30;11.70;;;8.60;;
11996;SDS011;6058;48.704;9.474;2023-05-02T13:29:58;9.53;;;8.30;;
11996;SDS011;6058;48.704;9.474;2023-05-02T13:32:26;10.47;;;8.20;;
11996;SDS011;6058;48.704;9.474;2023-05-02T13:34:53;8.57;;;7.47;;
11996;SDS011;6058;48.704;9.474;2023-05-02T13:37:20;7.60;;;6.47;;
11996;SDS011;6058;48.704;9.474;2023-05-02T13:39:47;8.93;;;7.37;;
11996;SDS011;6058;48.704;9.474;2023-05-02T13:42:15;8.17;;;7.03;;
11996;SDS011;6058;48.704;9.474;2023-05-02T13:44:43;8.07;;;6.63;;
11996;SDS011;6058;48.704;9.474;2023-05-02T13:47:10;7.00;;;6.07;;
11996;SDS011;6058;48.704;9.474;2023-05-02T13:49:37;8.00;;;6.90;;
11996;SDS011;6058;48.704;9.474;2023-05-02T13:52:04;10.00;;;8.60;;
11996;SDS011;6058;48.704;9.474;2023-05-02T13:54:31;10.13;;;7.43;;
11996;SDS011;6058;48.704;9.474;2023-05-02T13:56:59;9.03;;;7.53;;
11996;SDS011;6058;48.704;9.474;2023-05-02T13:59:26;8.53;;;7.17;;
11996;SDS011;6058;48.704;9.474;2023-05-02T14:01:55;5.53;;;5.03;;
11996;SDS011;6058;48.704;9.474;2023-05-02T14:04:22;5.90;;;5.27;;
11996;SDS011;6058;48.704;9.474;2023-05-02T14:06:49;6.80;;;5.70;;
11996;SDS011;6058;48.704;9.474;2023-05-02T14:09:16;9.83;;;5.63;;
11996;SDS011;6058;48.704;9.474;2023-05-02T14:11:44;8.00;;;5.50;;
11996;SDS011;6058;48.704;9.474;2023-05-02T14:14:12;6.17;;;4.93;;
11996;SDS011;6058;48.704;9.474;2023-05-02T14:16:57;8.30;;;5.67;;
11996;SDS011;6058;48.704;9.474;2023-05-02T14:19:26;9.37;;;7.03;;
11996;SDS011;6058;48.704;9.474;2023-05-02T14:21:53;8.03;;;6.77;;
11996;SDS011;6058;48.704;9.474;2023-05-02T14:24:20;7.47;;;6.43;;
11996;SDS011;6058;48.704;9.474;2023-05-02T14:26:47;9.27;;;7.27;;
11996;SDS011;6058;48.704;9.474;2023-05-02T14:29:15;9.87;;;7.67;;
11996;SDS011;6058;48.704;9.474;2023-05-02T14:31:42;12.03;;;9.13;;
11996;SDS011;6058;48.704;9.474;2023-05-02T14:34:11;11.13;;;8.97;;
11996;SDS011;6058;48.704;9.474;2023-05-02T14:36:38;10.77;;;7.77;;
11996;SDS011;6058;48.704;9.474;2023-05-02T14:39:05;10.60;;;8.73;;
11996;SDS011;6058;48.704;9.474;2023-05-02T14:41:32;10.07;;;7.90;;
11996;SDS011;6058;48.704;9.474;2023-05-02T14:44:00;10.83;;;8.47;;
11996;SDS011;6058;48.704;9.474;2023-05-02T14:46:27;12.83;;;10.00;;
11996;SDS011;6058;48.704;9.474;2023-05-02T14:48:55;10.30;;;7.43;;
11996;SDS011;6058;48.704;9.474;2023-05-02T14:51:25;10.47;;;8.07;;
11996;SDS011;6058;48.704;9.474;2023-05-02T14:53:52;10.73;;;9.30;;
11996;SDS011;6058;48.704;9.474;2023-05-02T14:56:19;9.97;;;8.80;;
11996;SDS011;6058;48.704;9.474;2023-05-02T14:58:47;10.73;;;8.57;;
11996;SDS011;6058;48.704;9.474;2023-05-02T15:01:14;11.47;;;9.27;;
11996;SDS011;6058;48.704;9.474;2023-05-02T15:03:42;14.73;;;8.73;;
11996;SDS011;6058;48.704;9.474;2023-05-02T15:06:11;11.77;;;7.40;;
11996;SDS011;6058;48.704;9.474;2023-05-02T15:08:39;10.20;;;6.73;;
11996;SDS011;6058;48.704;9.474;2023-05-02T15:11:08;10.97;;;8.77;;
11996;SDS011;6058;48.704;9.474;2023-05-02T15:13:35;8.03;;;6.70;;
11996;SDS011;6058;48.704;9.474;2023-05-02T15:16:02;9.47;;;7.80;;
11996;SDS011;6058;48.704;9.474;2023-05-02T15:18:29;10.70;;;7.00;;
11996;SDS011;6058;48.704;9.474;2023-05-02T15:20:57;8.30;;;6.53;;
11996;SDS011;6058;48.704;9.474;2023-05-02T15:23:24;7.60;;;6.27;;
11996;SDS011;6058;48.704;9.474;2023-05-02T15:25:52;8.33;;;5.97;;
11996;SDS011;6058;48.704;9.474;2023-05-02T15:30:56;6.47;;;5.47;;
11996;SDS011;6058;48.704;9.474;2023-05-02T15:33:23;8.70;;;6.77;;
11996;SDS011;6058;48.704;9.474;2023-05-02T15:35:51;7.47;;;6.03;;
11996;SDS011;6058;48.704;9.474;2023-05-02T15:38:19;8.27;;;6.17;;
11996;SDS011;6058;48.704;9.474;2023-05-02T15:40:53;7.27;;;6.03;;
11996;SDS011;6058;48.704;9.474;2023-05-02T15:43:20;6.67;;;5.47;;
11996;SDS011;6058;48.704;9.474;2023-05-02T15:45:50;7.23;;;6.20;;
11996;SDS011;6058;48.704;9.474;2023-05-02T15:48:18;10.23;;;6.20;;
11996;SDS011;6058;48.704;9.474;2023-05-02T15:50:45;10.67;;;6.30;;
11996;SDS011;6058;48.704;9.474;2023-05-02T15:53:12;8.43;;;5.83;;
11996;SDS011;6058;48.704;9.474;2023-05-02T15:55:39;7.47;;;5.90;;
11996;SDS011;6058;48.704;9.474;2023-05-02T15:58:08;8.13;;;6.30;;
11996;SDS011;6058;48.704;9.474;2023-05-02T16:00:36;8.20;;;5.63;;
11996;SDS011;6058;48.704;9.474;2023-05-02T16:03:03;7.50;;;5.20;;
11996;SDS011;6058;48.704;9.474;2023-05-02T16:05:30;7.23;;;5.13;;
11996;SDS011;6058;48.704;9.474;2023-05-02T16:07:57;5.83;;;4.77;;
11996;SDS011;6058;48.704;9.474;2023-05-02T16:10:25;7.60;;;5.23;;
11996;SDS011;6058;48.704;9.474;2023-05-02T16:12:52;4.90;;;4.27;;
11996;SDS011;6058;48.704;9.474;2023-05-02T16:15:20;4.70;;;3.70;;
11996;SDS011;6058;48.704;9.474;2023-05-02T16:17:48;5.67;;;4.40;;
11996;SDS011;6058;48.704;9.474;2023-05-02T16:20:15;6.50;;;4.60;;
11996;SDS011;6058;48.704;9.474;2023-05-02T16:22:42;5.23;;;3.97;;
11996;SDS011;6058;48.704;9.474;2023-05-02T16:25:10;4.80;;;4.20;;